createdAt,value
2018-07-13T00:01:09.809Z,12.33
2018-07-13T00:03:38.244Z,13.80
2018-07-13T00:06:06.704Z,17.53
2018-07-13T00:08:35.264Z,17.07
2018-07-13T00:11:03.716Z,13.67
2018-07-13T00:13:37.697Z,13.30
2018-07-13T00:16:06.144Z,20.80
2018-07-13T00:18:34.585Z,13.80
2018-07-13T00:21:03.028Z,19.60
2018-07-13T00:23:31.465Z,19.03
2018-07-13T00:25:59.896Z,19.80
2018-07-13T00:28:28.371Z,17.73
2018-07-13T00:30:56.801Z,19.80
2018-07-13T00:33:25.259Z,23.10
2018-07-13T00:35:53.782Z,17.93
2018-07-13T00:38:22.265Z,19.20
2018-07-13T00:40:50.700Z,13.97
2018-07-13T00:43:19.161Z,14.13
2018-07-13T00:45:47.662Z,14.50
2018-07-13T00:48:16.100Z,14.80
2018-07-13T00:50:44.586Z,13.13
2018-07-13T00:53:13.002Z,25.00
2018-07-13T00:55:41.440Z,14.83
2018-07-13T00:58:09.861Z,13.03
2018-07-13T01:00:38.359Z,15.63
2018-07-13T01:03:06.875Z,17.27
2018-07-13T01:05:35.295Z,18.77
2018-07-13T01:08:03.727Z,17.57
2018-07-13T01:10:32.167Z,14.93
2018-07-13T01:13:00.576Z,22.87
2018-07-13T01:15:29.049Z,13.97
2018-07-13T01:17:57.527Z,13.63
2018-07-13T01:20:26.035Z,15.90
2018-07-13T01:22:54.432Z,15.60
2018-07-13T01:25:22.892Z,14.97
2018-07-13T01:27:51.308Z,16.23
2018-07-13T01:30:19.918Z,15.73
2018-07-13T01:32:48.364Z,14.30
2018-07-13T01:35:16.822Z,13.93
2018-07-13T01:37:45.264Z,16.20
2018-07-13T01:40:13.702Z,22.83
2018-07-13T01:42:42.316Z,19.93
2018-07-13T01:45:11.436Z,21.60
2018-07-13T01:47:39.935Z,23.40
2018-07-13T01:50:08.406Z,20.27
2018-07-13T01:52:36.828Z,19.90
2018-07-13T01:55:05.602Z,25.60
2018-07-13T01:57:34.228Z,19.13
2018-07-13T02:00:02.745Z,21.67
2018-07-13T02:02:31.162Z,25.23
2018-07-13T02:04:59.596Z,19.60
2018-07-13T02:07:28.038Z,18.73
2018-07-13T02:09:56.872Z,16.83
2018-07-13T02:12:25.309Z,18.87
2018-07-13T02:14:53.780Z,14.90
2018-07-13T02:17:22.607Z,20.27
2018-07-13T02:19:51.055Z,18.70
2018-07-13T02:22:19.496Z,17.77
2018-07-13T02:24:48.099Z,18.07
2018-07-13T02:27:17.042Z,15.80
2018-07-13T02:29:45.511Z,19.30
2018-07-13T02:32:13.965Z,26.10
2018-07-13T02:34:42.421Z,21.53
2018-07-13T02:37:10.935Z,21.20
2018-07-13T02:39:39.387Z,19.00
2018-07-13T02:42:07.788Z,16.97
2018-07-13T02:44:36.274Z,21.57
2018-07-13T02:47:05.061Z,28.07
2018-07-13T02:49:33.630Z,24.07
2018-07-13T02:52:02.081Z,16.57
2018-07-13T02:54:30.566Z,16.50
2018-07-13T02:56:59.709Z,26.00
2018-07-13T02:59:28.118Z,29.97
2018-07-13T03:01:56.649Z,17.73
2018-07-13T03:04:25.068Z,22.10
2018-07-13T03:06:53.538Z,23.73
2018-07-13T03:09:21.945Z,29.47
2018-07-13T03:11:50.384Z,26.93
2018-07-13T03:14:18.845Z,33.83
2018-07-13T03:16:47.285Z,17.07
2018-07-13T03:19:15.701Z,27.57
2018-07-13T03:21:44.184Z,26.83
2018-07-13T03:24:12.625Z,28.50
2018-07-13T03:26:41.044Z,25.30
2018-07-13T03:29:09.461Z,20.37
2018-07-13T03:31:38.102Z,17.77
2018-07-13T03:34:06.559Z,26.80
2018-07-13T03:36:35.054Z,21.40
2018-07-13T03:39:03.660Z,22.77
2018-07-13T03:41:32.193Z,20.70
2018-07-13T03:44:00.671Z,29.60
2018-07-13T03:46:29.093Z,24.03
2018-07-13T03:48:57.532Z,20.00
2018-07-13T03:51:26.118Z,24.10
2018-07-13T03:53:54.593Z,22.50
2018-07-13T03:56:23.029Z,25.97
2018-07-13T03:58:51.508Z,20.33
2018-07-13T04:01:19.970Z,22.30
2018-07-13T04:03:48.473Z,21.93
2018-07-13T04:06:16.835Z,26.97
2018-07-13T04:08:45.540Z,32.17
2018-07-13T04:11:14.059Z,25.53
2018-07-13T04:13:42.503Z,27.00
2018-07-13T04:16:10.928Z,26.23
2018-07-13T04:18:39.413Z,25.73
2018-07-13T04:21:07.992Z,21.87
2018-07-13T04:23:36.505Z,25.67
2018-07-13T04:26:05.017Z,31.50
2018-07-13T04:28:33.803Z,19.03
2018-07-13T04:31:02.288Z,26.60
2018-07-13T04:33:30.768Z,21.63
2018-07-13T04:35:59.408Z,26.23
2018-07-13T04:38:27.861Z,29.07
2018-07-13T04:40:56.407Z,19.10
2018-07-13T04:43:24.841Z,25.73
2018-07-13T04:45:53.341Z,20.53
2018-07-13T04:48:21.817Z,27.60
2018-07-13T04:50:50.504Z,24.83
2018-07-13T04:53:19.038Z,24.07
2018-07-13T04:55:47.565Z,25.53
2018-07-13T04:58:16.129Z,22.23
2018-07-13T05:00:44.644Z,23.03
2018-07-13T05:03:13.282Z,28.60
2018-07-13T05:05:41.784Z,23.83
2018-07-13T05:08:10.283Z,25.47
2018-07-13T05:10:38.768Z,33.23
2018-07-13T05:13:07.278Z,25.97
2018-07-13T05:15:35.787Z,26.20
2018-07-13T05:18:03.912Z,31.73
2018-07-13T05:20:32.438Z,23.90
2018-07-13T05:23:01.432Z,25.50
2018-07-13T05:25:29.945Z,31.60
2018-07-13T05:27:58.452Z,27.60
2018-07-13T05:30:27.264Z,32.07
2018-07-13T05:32:55.799Z,39.57
2018-07-13T05:35:24.324Z,31.23
2018-07-13T05:37:53.137Z,31.60
2018-07-13T05:40:21.860Z,26.40
2018-07-13T05:42:50.463Z,28.90
2018-07-13T05:45:19.017Z,32.37
2018-07-13T05:47:47.701Z,31.40
2018-07-13T05:50:16.236Z,31.53
2018-07-13T05:52:44.807Z,34.97
2018-07-13T05:55:13.361Z,34.13
2018-07-13T05:57:42.023Z,27.90
2018-07-13T06:00:10.569Z,24.40
2018-07-13T06:02:39.083Z,17.73
2018-07-13T06:05:07.601Z,19.47
2018-07-13T06:07:36.192Z,24.47
2018-07-13T06:10:04.394Z,21.53
2018-07-13T06:12:32.998Z,17.80
2018-07-13T06:15:01.596Z,32.07
2018-07-13T06:17:29.901Z,62.97
2018-07-13T06:19:58.482Z,24.37
2018-07-13T06:22:27.050Z,19.35
2018-07-13T06:24:55.493Z,13.98
2018-07-13T06:27:23.924Z,16.87
2018-07-13T06:29:52.503Z,16.12
2018-07-13T06:32:21.032Z,18.32
2018-07-13T06:34:49.461Z,14.47
2018-07-13T06:37:18.248Z,20.27
2018-07-13T06:39:47.346Z,15.10
2018-07-13T06:42:16.050Z,20.70
2018-07-13T06:44:44.517Z,14.50
2018-07-13T06:47:13.228Z,11.33
2018-07-13T06:49:42.159Z,20.35
2018-07-13T06:52:10.779Z,13.80
2018-07-13T06:54:39.465Z,13.28
2018-07-13T06:57:08.104Z,14.50
2018-07-13T06:59:37.454Z,14.38
2018-07-13T07:02:06.140Z,23.85
2018-07-13T07:04:37.463Z,19.05
2018-07-13T07:07:15.292Z,18.85
2018-07-13T07:09:47.175Z,14.28
2018-07-13T07:12:50.866Z,20.20
2018-07-13T07:15:19.409Z,15.80
2018-07-13T07:17:47.946Z,18.42
2018-07-13T07:20:16.544Z,15.03
2018-07-13T07:22:45.425Z,15.35
2018-07-13T07:25:13.924Z,16.27
2018-07-13T07:27:42.780Z,16.07
2018-07-13T07:30:11.446Z,21.37
2018-07-13T07:32:39.942Z,16.25
2018-07-13T07:35:09.040Z,16.97
2018-07-13T07:37:37.680Z,17.70
2018-07-13T07:40:06.480Z,22.58
2018-07-13T07:42:35.061Z,21.07
2018-07-13T07:45:04.305Z,19.65
2018-07-13T07:47:32.870Z,19.02
2018-07-13T07:50:01.444Z,20.25
2018-07-13T07:52:29.860Z,16.35
2018-07-13T07:54:58.272Z,15.00
2018-07-13T07:57:26.743Z,16.57
2018-07-13T07:59:55.184Z,22.50
2018-07-13T08:02:23.688Z,22.05
2018-07-13T08:04:53.286Z,15.98
2018-07-13T08:07:21.865Z,19.67
2018-07-13T08:09:50.308Z,17.60
2018-07-13T08:12:18.765Z,17.12
2018-07-13T08:14:47.256Z,16.32
2018-07-13T08:17:15.742Z,30.12
2018-07-13T08:19:44.277Z,17.70
2018-07-13T08:22:16.696Z,19.45
2018-07-13T08:24:45.482Z,17.20
2018-07-13T08:27:18.829Z,17.95
2018-07-13T08:29:47.370Z,19.40
2018-07-13T08:32:15.892Z,23.98
2018-07-13T08:34:44.807Z,22.65
2018-07-13T08:37:13.396Z,15.50
2018-07-13T08:39:41.888Z,21.48
2018-07-13T08:42:10.483Z,16.80
2018-07-13T08:44:38.999Z,14.25
2018-07-13T08:47:07.606Z,16.27
2018-07-13T08:49:36.116Z,24.60
2018-07-13T08:52:04.742Z,14.13
2018-07-13T08:54:33.545Z,21.75
2018-07-13T08:57:02.083Z,18.67
2018-07-13T08:59:30.529Z,13.50
2018-07-13T09:01:59.054Z,17.82
2018-07-13T09:04:27.835Z,15.43
2018-07-13T09:06:56.313Z,17.52
2018-07-13T09:09:25.644Z,14.07
2018-07-13T09:11:54.682Z,20.30
2018-07-13T09:14:23.198Z,15.05
2018-07-13T09:16:51.958Z,14.58
2018-07-13T09:19:20.462Z,21.40
2018-07-13T09:21:49.062Z,14.45
2018-07-13T09:24:17.664Z,13.62
2018-07-13T09:26:46.165Z,11.78
2018-07-13T09:29:14.660Z,14.75
2018-07-13T09:31:43.162Z,18.67
2018-07-13T09:34:11.721Z,12.40
2018-07-13T09:36:40.495Z,11.43
2018-07-13T09:39:09.503Z,15.05
2018-07-13T09:41:38.083Z,10.63
2018-07-13T09:44:06.807Z,15.08
2018-07-13T09:46:35.338Z,18.57
2018-07-13T09:49:03.511Z,12.30
2018-07-13T09:51:32.154Z,11.00
2018-07-13T09:54:00.719Z,13.18
2018-07-13T09:56:29.198Z,10.65
2018-07-13T09:58:57.689Z,11.65
2018-07-13T10:01:26.220Z,14.95
2018-07-13T10:03:55.013Z,8.38
2018-07-13T10:06:23.535Z,9.28
2018-07-13T10:08:51.962Z,10.50
2018-07-13T10:11:20.445Z,10.45
2018-07-13T10:13:48.900Z,10.78
2018-07-13T10:16:17.409Z,12.28
2018-07-13T10:18:45.910Z,11.12
2018-07-13T10:21:14.637Z,14.03
2018-07-13T10:23:44.136Z,14.25
2018-07-13T10:26:15.149Z,12.82
2018-07-13T10:28:43.785Z,8.88
2018-07-13T10:31:13.704Z,8.55
2018-07-13T10:33:42.520Z,10.23
2018-07-13T10:36:14.569Z,13.40
2018-07-13T10:38:43.059Z,9.10
2018-07-13T10:41:11.549Z,7.70
2018-07-13T10:43:40.225Z,13.85
2018-07-13T10:46:08.783Z,9.03
2018-07-13T10:48:37.248Z,7.45
2018-07-13T10:51:05.776Z,8.50
2018-07-13T10:53:34.913Z,6.50
2018-07-13T10:56:03.350Z,7.90
2018-07-13T10:58:31.895Z,12.98
2018-07-13T11:01:00.481Z,10.98
2018-07-13T11:03:28.999Z,7.47
2018-07-13T11:05:57.600Z,7.72
2018-07-13T11:08:26.046Z,5.72
2018-07-13T11:10:54.724Z,9.40
2018-07-13T11:13:23.260Z,6.67
2018-07-13T11:15:53.659Z,7.72
2018-07-13T11:18:22.120Z,6.10
2018-07-13T11:20:50.776Z,5.00
2018-07-13T11:23:19.172Z,10.35
2018-07-13T11:25:47.772Z,4.87
2018-07-13T11:28:16.329Z,7.70
2018-07-13T11:30:44.921Z,6.75
2018-07-13T11:33:13.504Z,6.67
2018-07-13T11:35:42.035Z,4.58
2018-07-13T11:38:10.568Z,8.50
2018-07-13T11:40:39.054Z,10.90
2018-07-13T11:43:07.534Z,6.22
2018-07-13T11:45:35.975Z,5.60
2018-07-13T11:48:04.544Z,11.03
2018-07-13T11:50:33.204Z,5.87
2018-07-13T11:53:01.624Z,5.10
2018-07-13T11:55:30.065Z,7.28
2018-07-13T11:57:58.811Z,5.17
2018-07-13T12:00:27.259Z,5.58
2018-07-13T12:02:55.888Z,4.78
2018-07-13T12:05:24.268Z,5.12
2018-07-13T12:07:52.765Z,5.37
2018-07-13T12:10:21.205Z,10.60
2018-07-13T12:12:49.620Z,4.47
2018-07-13T12:15:18.078Z,4.58
2018-07-13T12:17:47.051Z,4.45
2018-07-13T12:20:15.500Z,4.35
2018-07-13T12:22:43.936Z,4.28
2018-07-13T12:25:13.138Z,4.83
2018-07-13T12:27:41.786Z,3.85
2018-07-13T12:30:10.260Z,8.53
2018-07-13T12:32:39.059Z,6.00
2018-07-13T12:35:07.688Z,4.90
2018-07-13T12:37:36.020Z,5.03
2018-07-13T12:40:04.772Z,7.62
2018-07-13T12:42:33.191Z,4.28
2018-07-13T12:45:01.662Z,4.15
2018-07-13T12:47:30.141Z,4.65
2018-07-13T12:49:58.587Z,3.92
2018-07-13T12:52:27.355Z,4.08
2018-07-13T12:54:55.782Z,4.85
2018-07-13T12:57:24.203Z,4.30
2018-07-13T12:59:52.826Z,5.97
2018-07-13T13:02:21.306Z,4.10
2018-07-13T13:04:49.912Z,4.20
2018-07-13T13:07:18.352Z,4.10
2018-07-13T13:09:47.955Z,4.97
2018-07-13T13:12:16.367Z,6.03
2018-07-13T13:14:44.791Z,4.37
2018-07-13T13:17:13.401Z,4.50
2018-07-13T13:19:42.331Z,5.00
2018-07-13T13:22:10.768Z,3.87
2018-07-13T13:24:39.353Z,4.47
2018-07-13T13:27:07.825Z,5.08
2018-07-13T13:29:37.188Z,4.03
2018-07-13T13:32:05.672Z,4.62
2018-07-13T13:34:34.158Z,4.25
2018-07-13T13:37:02.564Z,6.92
2018-07-13T13:39:30.970Z,3.75
2018-07-13T13:41:59.400Z,4.65
2018-07-13T13:44:27.814Z,5.65
2018-07-13T13:46:56.404Z,3.65
2018-07-13T13:49:24.831Z,3.72
2018-07-13T13:51:53.301Z,4.42
2018-07-13T13:54:21.732Z,3.90
2018-07-13T13:56:50.218Z,3.92
2018-07-13T13:59:18.767Z,5.15
2018-07-13T14:01:47.266Z,3.10
2018-07-13T14:04:16.039Z,5.03
2018-07-13T14:06:44.458Z,3.22
2018-07-13T14:09:13.034Z,3.70
2018-07-13T14:11:41.441Z,4.03
2018-07-13T14:14:10.043Z,3.80
2018-07-13T14:16:38.494Z,5.85
2018-07-13T14:19:07.064Z,3.55
2018-07-13T14:21:35.479Z,3.85
2018-07-13T14:24:03.916Z,3.90
2018-07-13T14:26:32.377Z,3.17
2018-07-13T14:29:00.866Z,2.95
2018-07-13T14:31:29.298Z,3.98
2018-07-13T14:33:57.740Z,5.63
2018-07-13T14:36:26.152Z,3.60
2018-07-13T14:38:54.633Z,3.12
2018-07-13T14:41:23.301Z,3.90
2018-07-13T14:43:51.787Z,4.25
2018-07-13T14:46:20.300Z,4.40
2018-07-13T14:48:48.702Z,3.40
2018-07-13T14:51:17.173Z,4.58
2018-07-13T14:53:45.613Z,3.02
2018-07-13T14:56:14.143Z,4.10
2018-07-13T14:58:42.596Z,3.65
2018-07-13T15:01:11.004Z,3.70
2018-07-13T15:03:39.498Z,3.60
2018-07-13T15:06:08.068Z,3.83
2018-07-13T15:08:36.504Z,8.15
2018-07-13T15:11:04.977Z,3.85
2018-07-13T15:13:33.437Z,4.28
2018-07-13T15:16:01.874Z,3.35
2018-07-13T15:18:30.336Z,2.58
2018-07-13T15:20:58.781Z,3.40
2018-07-13T15:23:27.241Z,3.72
2018-07-13T15:25:55.838Z,7.47
2018-07-13T15:28:24.324Z,3.47
2018-07-13T15:30:53.230Z,3.37
2018-07-13T15:33:21.927Z,3.50
2018-07-13T15:35:50.405Z,5.00
2018-07-13T15:38:18.924Z,3.60
2018-07-13T15:40:47.477Z,3.42
2018-07-13T15:43:16.110Z,3.92
2018-07-13T15:45:44.557Z,3.15
2018-07-13T15:48:12.968Z,4.12
2018-07-13T15:50:41.395Z,3.62
2018-07-13T15:53:09.933Z,4.05
2018-07-13T15:55:43.641Z,4.37
2018-07-13T15:58:12.089Z,6.35
2018-07-13T16:00:40.543Z,3.52
2018-07-13T16:03:09.240Z,3.70
2018-07-13T16:05:38.109Z,4.70
2018-07-13T16:08:06.690Z,4.05
2018-07-13T16:10:35.016Z,4.15
2018-07-13T16:13:03.434Z,8.40
2018-07-13T16:15:31.707Z,4.83
2018-07-13T16:17:59.825Z,4.45
2018-07-13T16:20:28.229Z,9.78
2018-07-13T16:22:56.834Z,3.92
2018-07-13T16:25:25.258Z,5.17
2018-07-13T16:27:53.682Z,3.25
2018-07-13T16:30:22.198Z,4.08
2018-07-13T16:32:50.706Z,3.98
2018-07-13T16:35:19.201Z,5.53
2018-07-13T16:37:47.633Z,3.67
2018-07-13T16:40:16.349Z,3.57
2018-07-13T16:42:45.035Z,3.23
2018-07-13T16:45:13.628Z,4.17
2018-07-13T16:47:42.084Z,4.25
2018-07-13T16:50:10.740Z,4.30
2018-07-13T16:52:39.246Z,4.17
2018-07-13T16:55:07.755Z,3.50
2018-07-13T16:57:36.443Z,3.52
2018-07-13T17:00:04.895Z,3.83
2018-07-13T17:02:33.335Z,5.55
2018-07-13T17:05:01.770Z,6.80
2018-07-13T17:07:30.216Z,4.05
2018-07-13T17:09:58.676Z,5.67
2018-07-13T17:12:27.136Z,3.93
2018-07-13T17:14:55.610Z,3.40
2018-07-13T17:17:24.088Z,5.87
2018-07-13T17:19:52.893Z,4.20
2018-07-13T17:22:21.481Z,4.00
2018-07-13T17:24:49.937Z,5.10
2018-07-13T17:27:18.403Z,5.83
2018-07-13T17:29:47.694Z,5.00
2018-07-13T17:32:16.233Z,4.53
2018-07-13T17:34:44.687Z,4.73
2018-07-13T17:37:13.108Z,6.30
2018-07-13T17:39:41.561Z,5.27
2018-07-13T17:42:10.092Z,4.77
2018-07-13T17:44:38.517Z,6.87
2018-07-13T17:47:07.161Z,4.90
2018-07-13T17:49:35.920Z,3.87
2018-07-13T17:52:04.483Z,5.83
2018-07-13T17:54:32.943Z,5.43
2018-07-13T17:57:01.604Z,5.67
2018-07-13T17:59:30.213Z,8.13
2018-07-13T18:02:10.300Z,5.03
2018-07-13T18:04:38.733Z,4.10
2018-07-13T18:07:07.220Z,5.50
2018-07-13T18:09:35.724Z,4.77
2018-07-13T18:12:04.248Z,8.93
2018-07-13T18:14:32.684Z,5.00
2018-07-13T18:17:01.119Z,13.10
2018-07-13T18:19:29.525Z,5.17
2018-07-13T18:21:57.987Z,4.00
2018-07-13T18:24:26.715Z,4.43
2018-07-13T18:26:55.235Z,5.43
2018-07-13T18:29:23.814Z,6.93
2018-07-13T18:31:52.468Z,4.83
2018-07-13T18:34:20.922Z,6.27
2018-07-13T18:36:49.425Z,6.20
2018-07-13T18:39:17.900Z,4.73
2018-07-13T18:41:46.415Z,4.20
2018-07-13T18:44:15.655Z,6.80
2018-07-13T18:46:44.278Z,4.30
2018-07-13T18:49:12.737Z,7.90
2018-07-13T18:51:41.803Z,14.57
2018-07-13T18:54:10.224Z,5.20
2018-07-13T18:56:38.637Z,4.30
2018-07-13T18:59:07.431Z,7.17
2018-07-13T19:01:36.026Z,4.00
2018-07-13T19:04:04.533Z,9.23
2018-07-13T19:06:33.068Z,6.13
2018-07-13T19:09:01.536Z,6.10
2018-07-13T19:11:30.248Z,5.10
2018-07-13T19:13:59.039Z,4.07
2018-07-13T19:16:27.480Z,4.50
2018-07-13T19:18:56.012Z,5.77
2018-07-13T19:21:24.545Z,5.47
2018-07-13T19:23:54.072Z,4.20
2018-07-13T19:26:22.509Z,4.77
2018-07-13T19:28:50.945Z,4.33
2018-07-13T19:31:19.621Z,5.93
2018-07-13T19:33:48.112Z,6.30
2018-07-13T19:36:16.561Z,5.73
2018-07-13T19:38:45.126Z,5.70
2018-07-13T19:41:13.681Z,4.83
2018-07-13T19:43:42.203Z,4.83
2018-07-13T19:46:12.056Z,9.00
2018-07-13T19:48:40.569Z,9.00
2018-07-13T19:51:09.394Z,4.67
2018-07-13T19:53:38.108Z,6.87
2018-07-13T19:56:06.583Z,4.83
2018-07-13T19:58:35.353Z,4.70
2018-07-13T20:01:04.169Z,8.27
2018-07-13T20:03:32.679Z,6.47
2018-07-13T20:06:01.199Z,7.23
2018-07-13T20:08:29.746Z,8.93
2018-07-13T20:10:58.325Z,4.97
2018-07-13T20:13:26.954Z,6.63
2018-07-13T20:15:57.176Z,15.37
2018-07-13T20:18:25.947Z,9.07
2018-07-13T20:20:54.425Z,10.30
2018-07-13T20:23:22.938Z,10.30
2018-07-13T20:25:51.580Z,11.73
2018-07-13T20:28:20.043Z,20.43
2018-07-13T20:30:49.382Z,6.03
2018-07-13T20:33:17.840Z,8.23
2018-07-13T20:35:48.080Z,14.37
2018-07-13T20:38:16.805Z,6.70
2018-07-13T20:40:45.228Z,14.03
2018-07-13T20:43:13.870Z,6.30
2018-07-13T20:45:43.634Z,7.03
2018-07-13T20:48:12.152Z,10.03
2018-07-13T20:50:41.149Z,7.83
2018-07-13T20:53:09.869Z,8.20
2018-07-13T20:55:38.354Z,7.20
2018-07-13T20:58:07.260Z,6.67
2018-07-13T21:00:35.999Z,14.30
2018-07-13T21:03:04.489Z,12.53
2018-07-13T21:05:32.934Z,10.80
2018-07-13T21:08:01.442Z,9.87
2018-07-13T21:10:30.259Z,6.60
2018-07-13T21:12:59.435Z,9.33
2018-07-13T21:15:27.981Z,10.43
2018-07-13T21:17:56.100Z,11.80
2018-07-13T21:20:24.800Z,13.33
2018-07-13T21:22:54.639Z,11.20
2018-07-13T21:25:23.072Z,9.60
2018-07-13T21:27:51.536Z,10.50
2018-07-13T21:30:20.000Z,8.03
2018-07-13T21:32:48.396Z,8.77
2018-07-13T21:35:16.831Z,12.27
2018-07-13T21:37:45.278Z,8.53
2018-07-13T21:40:13.813Z,6.80
2018-07-13T21:42:42.316Z,6.07
2018-07-13T21:45:10.981Z,6.70
2018-07-13T21:47:40.591Z,25.13
2018-07-13T21:50:09.172Z,8.10
2018-07-13T21:52:37.631Z,10.70
2018-07-13T21:55:06.117Z,7.83
2018-07-13T21:57:34.581Z,10.10
2018-07-13T22:00:03.180Z,11.47
2018-07-13T22:02:31.640Z,8.43
2018-07-13T22:04:59.726Z,7.33
2018-07-13T22:07:28.149Z,9.00
2018-07-13T22:09:56.553Z,9.07
2018-07-13T22:12:24.977Z,7.87
2018-07-13T22:14:53.384Z,12.40
2018-07-13T22:17:21.826Z,7.40
2018-07-13T22:19:50.265Z,10.70
2018-07-13T22:22:18.412Z,7.23
2018-07-13T22:24:46.811Z,8.70
2018-07-13T22:27:15.288Z,6.70
2018-07-13T22:29:43.761Z,10.30
2018-07-13T22:32:12.214Z,13.00
2018-07-13T22:34:40.864Z,8.53
2018-07-13T22:37:09.391Z,10.37
2018-07-13T22:39:39.904Z,18.67
2018-07-13T22:42:08.327Z,11.27
2018-07-13T22:44:36.812Z,12.73
2018-07-13T22:47:05.745Z,9.03
2018-07-13T22:49:34.367Z,9.80
2018-07-13T22:52:02.842Z,10.17
2018-07-13T22:54:31.260Z,10.43
2018-07-13T22:57:00.028Z,8.10
2018-07-13T22:59:28.428Z,9.40
2018-07-13T23:01:56.906Z,10.10
2018-07-13T23:04:25.320Z,15.10
2018-07-13T23:06:53.929Z,11.33
2018-07-13T23:09:22.355Z,18.87
2018-07-13T23:11:50.829Z,9.97
2018-07-13T23:14:19.377Z,9.43
2018-07-13T23:16:47.856Z,16.43
2018-07-13T23:19:16.317Z,11.60
2018-07-13T23:21:44.843Z,12.20
2018-07-13T23:24:13.261Z,10.87
2018-07-13T23:26:41.784Z,16.53
2018-07-13T23:29:10.877Z,11.80
2018-07-13T23:31:39.340Z,10.27
2018-07-13T23:34:07.536Z,12.87
2018-07-13T23:36:35.980Z,8.83
2018-07-13T23:39:05.217Z,8.70
2018-07-13T23:41:33.691Z,8.93
2018-07-13T23:44:02.166Z,9.57
2018-07-13T23:46:30.604Z,10.40
2018-07-13T23:48:59.140Z,12.10
2018-07-13T23:51:27.595Z,10.47
2018-07-13T23:53:56.084Z,9.93
2018-07-13T23:56:24.579Z,9.77
2018-07-13T23:58:53.040Z,8.93
